sensor_id;sensor_type;location;lat;lon;timestamp;P1;durP1;ratioP1;P2;durP2;ratioP2
9827;SDS011;4953;48.952;9.442;2022-10-31T05:02:58;9.30;;;5.07;;
9827;SDS011;4953;48.952;9.442;2022-10-31T05:05:25;8.63;;;4.87;;
9827;SDS011;4953;48.952;9.442;2022-10-31T05:07:54;9.30;;;4.23;;
9827;SDS011;4953;48.952;9.442;2022-10-31T05:10:21;14.13;;;5.37;;
9827;SDS011;4953;48.952;9.442;2022-10-31T05:12:50;12.27;;;6.07;;
9827;SDS011;4953;48.952;9.442;2022-10-31T05:15:18;11.10;;;5.10;;
9827;SDS011;4953;48.952;9.442;2022-10-31T05:17:46;7.93;;;4.60;;
9827;SDS011;4953;48.952;9.442;2022-10-31T05:20:15;9.93;;;4.77;;
9827;SDS011;4953;48.952;9.442;2022-10-31T05:22:44;8.87;;;4.60;;
9827;SDS011;4953;48.952;9.442;2022-10-31T05:25:11;8.60;;;4.90;;
9827;SDS011;4953;48.952;9.442;2022-10-31T05:27:39;5.93;;;4.60;;
9827;SDS011;4953;48.952;9.442;2022-10-31T05:30:06;7.30;;;4.67;;
9827;SDS011;4953;48.952;9.442;2022-10-31T05:32:36;11.90;;;4.70;;
9827;SDS011;4953;48.952;9.442;2022-10-31T05:35:04;10.83;;;4.60;;
9827;SDS011;4953;48.952;9.442;2022-10-31T05:37:34;7.73;;;4.10;;
9827;SDS011;4953;48.952;9.442;2022-10-31T05:40:01;6.43;;;4.53;;
9827;SDS011;4953;48.952;9.442;2022-10-31T05:42:29;8.07;;;5.87;;
9827;SDS011;4953;48.952;9.442;2022-10-31T05:44:55;13.40;;;5.30;;
9827;SDS011;4953;48.952;9.442;2022-10-31T05:47:22;7.30;;;4.90;;
9827;SDS011;4953;48.952;9.442;2022-10-31T05:49:49;8.40;;;4.63;;
9827;SDS011;4953;48.952;9.442;2022-10-31T05:52:16;12.20;;;5.20;;
9827;SDS011;4953;48.952;9.442;2022-10-31T05:54:45;7.17;;;4.57;;
9827;SDS011;4953;48.952;9.442;2022-10-31T05:57:11;13.83;;;5.70;;
9827;SDS011;4953;48.952;9.442;2022-10-31T05:59:38;7.43;;;4.60;;
9827;SDS011;4953;48.952;9.442;2022-10-31T06:02:05;10.80;;;4.73;;
9827;SDS011;4953;48.952;9.442;2022-10-31T06:04:32;7.37;;;4.07;;
9827;SDS011;4953;48.952;9.442;2022-10-31T06:06:58;7.60;;;4.90;;
9827;SDS011;4953;48.952;9.442;2022-10-31T06:09:25;13.10;;;5.00;;
9827;SDS011;4953;48.952;9.442;2022-10-31T06:11:53;10.23;;;4.63;;
9827;SDS011;4953;48.952;9.442;2022-10-31T06:14:20;12.70;;;5.10;;
9827;SDS011;4953;48.952;9.442;2022-10-31T06:16:47;10.63;;;5.70;;
9827;SDS011;4953;48.952;9.442;2022-10-31T06:19:13;7.73;;;5.17;;
9827;SDS011;4953;48.952;9.442;2022-10-31T06:21:40;8.10;;;5.10;;
9827;SDS011;4953;48.952;9.442;2022-10-31T06:24:07;9.80;;;5.27;;
9827;SDS011;4953;48.952;9.442;2022-10-31T06:26:34;12.37;;;4.70;;
9827;SDS011;4953;48.952;9.442;2022-10-31T06:29:02;10.40;;;5.27;;
9827;SDS011;4953;48.952;9.442;2022-10-31T06:31:29;9.10;;;5.40;;
9827;SDS011;4953;48.952;9.442;2022-10-31T06:33:56;14.50;;;5.20;;
9827;SDS011;4953;48.952;9.442;2022-10-31T06:36:23;8.63;;;4.90;;
9827;SDS011;4953;48.952;9.442;2022-10-31T06:38:49;7.80;;;4.63;;
9827;SDS011;4953;48.952;9.442;2022-10-31T06:41:16;9.10;;;4.57;;
9827;SDS011;4953;48.952;9.442;2022-10-31T06:43:45;13.07;;;5.67;;
9827;SDS011;4953;48.952;9.442;2022-10-31T06:46:13;9.80;;;5.50;;
9827;SDS011;4953;48.952;9.442;2022-10-31T06:48:40;9.10;;;5.50;;
9827;SDS011;4953;48.952;9.442;2022-10-31T06:51:07;7.47;;;4.70;;
9827;SDS011;4953;48.952;9.442;2022-10-31T06:53:34;8.60;;;5.03;;
9827;SDS011;4953;48.952;9.442;2022-10-31T06:56:01;10.20;;;5.40;;
9827;SDS011;4953;48.952;9.442;2022-10-31T06:58:28;11.03;;;5.20;;
9827;SDS011;4953;48.952;9.442;2022-10-31T07:00:58;7.03;;;4.50;;
9827;SDS011;4953;48.952;9.442;2022-10-31T07:03:26;9.30;;;5.70;;
9827;SDS011;4953;48.952;9.442;2022-10-31T07:05:54;6.50;;;4.87;;
9827;SDS011;4953;48.952;9.442;2022-10-31T07:08:22;6.67;;;5.17;;
9827;SDS011;4953;48.952;9.442;2022-10-31T07:10:51;8.00;;;5.20;;
9827;SDS011;4953;48.952;9.442;2022-10-31T07:13:19;8.47;;;4.83;;
9827;SDS011;4953;48.952;9.442;2022-10-31T07:15:50;8.60;;;4.70;;
9827;SDS011;4953;48.952;9.442;2022-10-31T07:18:18;9.60;;;4.80;;
9827;SDS011;4953;48.952;9.442;2022-10-31T07:20:46;6.77;;;5.20;;
9827;SDS011;4953;48.952;9.442;2022-10-31T07:23:13;7.70;;;4.90;;
9827;SDS011;4953;48.952;9.442;2022-10-31T07:25:40;7.30;;;5.40;;
9827;SDS011;4953;48.952;9.442;2022-10-31T07:28:07;9.03;;;5.77;;
9827;SDS011;4953;48.952;9.442;2022-10-31T07:30:34;8.50;;;5.70;;
9827;SDS011;4953;48.952;9.442;2022-10-31T07:33:01;11.53;;;7.20;;
9827;SDS011;4953;48.952;9.442;2022-10-31T07:35:28;13.07;;;6.37;;
9827;SDS011;4953;48.952;9.442;2022-10-31T07:37:57;12.23;;;6.67;;
9827;SDS011;4953;48.952;9.442;2022-10-31T07:40:32;12.90;;;6.67;;
9827;SDS011;4953;48.952;9.442;2022-10-31T07:42:59;11.10;;;7.37;;
9827;SDS011;4953;48.952;9.442;2022-10-31T07:45:26;11.60;;;6.60;;
9827;SDS011;4953;48.952;9.442;2022-10-31T07:47:52;9.10;;;6.80;;
9827;SDS011;4953;48.952;9.442;2022-10-31T07:50:20;12.77;;;6.30;;
9827;SDS011;4953;48.952;9.442;2022-10-31T07:52:47;6.83;;;5.70;;
9827;SDS011;4953;48.952;9.442;2022-10-31T07:55:24;10.83;;;7.27;;
9827;SDS011;4953;48.952;9.442;2022-10-31T07:57:55;13.23;;;7.63;;
9827;SDS011;4953;48.952;9.442;2022-10-31T08:00:22;12.83;;;6.73;;
9827;SDS011;4953;48.952;9.442;2022-10-31T08:02:55;8.67;;;6.40;;
9827;SDS011;4953;48.952;9.442;2022-10-31T08:05:23;10.53;;;5.97;;
9827;SDS011;4953;48.952;9.442;2022-10-31T08:07:49;12.13;;;7.10;;
9827;SDS011;4953;48.952;9.442;2022-10-31T08:10:16;13.47;;;7.40;;
9827;SDS011;4953;48.952;9.442;2022-10-31T08:12:44;9.93;;;6.50;;
9827;SDS011;4953;48.952;9.442;2022-10-31T08:15:11;10.80;;;6.73;;
9827;SDS011;4953;48.952;9.442;2022-10-31T08:17:38;12.13;;;7.23;;
9827;SDS011;4953;48.952;9.442;2022-10-31T08:20:05;12.60;;;7.13;;
9827;SDS011;4953;48.952;9.442;2022-10-31T08:22:32;11.37;;;7.37;;
9827;SDS011;4953;48.952;9.442;2022-10-31T08:24:59;9.83;;;6.93;;
9827;SDS011;4953;48.952;9.442;2022-10-31T08:27:26;13.80;;;7.37;;
9827;SDS011;4953;48.952;9.442;2022-10-31T08:29:54;11.23;;;7.10;;
9827;SDS011;4953;48.952;9.442;2022-10-31T08:32:21;14.43;;;7.43;;
9827;SDS011;4953;48.952;9.442;2022-10-31T08:34:48;14.23;;;6.87;;
9827;SDS011;4953;48.952;9.442;2022-10-31T08:37:14;12.13;;;6.90;;
9827;SDS011;4953;48.952;9.442;2022-10-31T08:39:44;14.37;;;7.80;;
9827;SDS011;4953;48.952;9.442;2022-10-31T08:42:11;12.53;;;6.30;;
9827;SDS011;4953;48.952;9.442;2022-10-31T08:44:39;11.10;;;5.50;;
9827;SDS011;4953;48.952;9.442;2022-10-31T08:47:07;11.00;;;6.27;;
9827;SDS011;4953;48.952;9.442;2022-10-31T08:49:33;10.03;;;6.17;;
9827;SDS011;4953;48.952;9.442;2022-10-31T08:52:00;8.83;;;5.40;;
9827;SDS011;4953;48.952;9.442;2022-10-31T08:54:27;10.60;;;5.60;;
9827;SDS011;4953;48.952;9.442;2022-10-31T08:56:54;6.97;;;5.57;;
9827;SDS011;4953;48.952;9.442;2022-10-31T08:59:21;8.97;;;5.70;;
9827;SDS011;4953;48.952;9.442;2022-10-31T09:01:48;9.27;;;6.13;;
9827;SDS011;4953;48.952;9.442;2022-10-31T09:04:16;8.40;;;5.80;;
9827;SDS011;4953;48.952;9.442;2022-10-31T09:06:43;13.77;;;5.70;;
9827;SDS011;4953;48.952;9.442;2022-10-31T09:09:10;12.57;;;5.80;;
9827;SDS011;4953;48.952;9.442;2022-10-31T09:11:36;11.93;;;5.83;;
9827;SDS011;4953;48.952;9.442;2022-10-31T09:14:03;11.40;;;6.27;;
9827;SDS011;4953;48.952;9.442;2022-10-31T09:16:30;11.27;;;6.50;;
9827;SDS011;4953;48.952;9.442;2022-10-31T09:18:57;15.17;;;6.70;;
9827;SDS011;4953;48.952;9.442;2022-10-31T09:21:25;9.17;;;6.57;;
9827;SDS011;4953;48.952;9.442;2022-10-31T09:23:52;10.40;;;6.67;;
9827;SDS011;4953;48.952;9.442;2022-10-31T09:26:19;14.47;;;7.60;;
9827;SDS011;4953;48.952;9.442;2022-10-31T09:28:45;12.77;;;6.33;;
9827;SDS011;4953;48.952;9.442;2022-10-31T09:31:12;7.70;;;6.00;;
9827;SDS011;4953;48.952;9.442;2022-10-31T09:33:39;11.00;;;7.40;;
9827;SDS011;4953;48.952;9.442;2022-10-31T09:36:07;12.83;;;8.00;;
9827;SDS011;4953;48.952;9.442;2022-10-31T09:38:35;11.60;;;8.10;;
9827;SDS011;4953;48.952;9.442;2022-10-31T09:41:04;12.80;;;7.63;;
9827;SDS011;4953;48.952;9.442;2022-10-31T09:43:37;12.57;;;6.87;;
9827;SDS011;4953;48.952;9.442;2022-10-31T09:46:15;8.17;;;6.20;;
9827;SDS011;4953;48.952;9.442;2022-10-31T09:48:51;9.27;;;6.20;;
9827;SDS011;4953;48.952;9.442;2022-10-31T09:51:30;10.37;;;6.63;;
9827;SDS011;4953;48.952;9.442;2022-10-31T09:54:02;12.60;;;9.20;;
9827;SDS011;4953;48.952;9.442;2022-10-31T09:56:32;14.67;;;8.00;;
9827;SDS011;4953;48.952;9.442;2022-10-31T09:59:00;14.17;;;6.90;;
9827;SDS011;4953;48.952;9.442;2022-10-31T10:01:30;10.60;;;7.70;;
9827;SDS011;4953;48.952;9.442;2022-10-31T10:04:08;13.43;;;7.37;;
9827;SDS011;4953;48.952;9.442;2022-10-31T10:06:47;14.73;;;7.03;;
9827;SDS011;4953;48.952;9.442;2022-10-31T10:09:19;11.13;;;6.90;;
9827;SDS011;4953;48.952;9.442;2022-10-31T10:11:52;10.33;;;7.40;;
9827;SDS011;4953;48.952;9.442;2022-10-31T10:14:28;12.13;;;6.90;;
9827;SDS011;4953;48.952;9.442;2022-10-31T10:17:11;9.60;;;6.07;;
9827;SDS011;4953;48.952;9.442;2022-10-31T10:19:51;13.00;;;7.03;;
9827;SDS011;4953;48.952;9.442;2022-10-31T10:22:30;12.93;;;6.93;;
9827;SDS011;4953;48.952;9.442;2022-10-31T10:27:42;10.47;;;6.40;;
9827;SDS011;4953;48.952;9.442;2022-10-31T10:30:15;15.17;;;7.63;;
9827;SDS011;4953;48.952;9.442;2022-10-31T10:32:44;12.07;;;6.70;;
9827;SDS011;4953;48.952;9.442;2022-10-31T10:35:17;14.17;;;7.27;;
9827;SDS011;4953;48.952;9.442;2022-10-31T10:37:49;12.27;;;6.70;;
9827;SDS011;4953;48.952;9.442;2022-10-31T10:40:20;18.27;;;6.80;;
9827;SDS011;4953;48.952;9.442;2022-10-31T10:42:53;9.53;;;5.70;;
9827;SDS011;4953;48.952;9.442;2022-10-31T10:45:50;8.27;;;5.90;;
9827;SDS011;4953;48.952;9.442;2022-10-31T10:48:54;13.43;;;7.00;;
9827;SDS011;4953;48.952;9.442;2022-10-31T10:51:30;12.07;;;6.80;;
9827;SDS011;4953;48.952;9.442;2022-10-31T10:54:09;16.00;;;7.00;;
9827;SDS011;4953;48.952;9.442;2022-10-31T10:56:53;13.23;;;6.80;;
9827;SDS011;4953;48.952;9.442;2022-10-31T10:59:26;13.57;;;6.47;;
9827;SDS011;4953;48.952;9.442;2022-10-31T11:01:55;13.93;;;6.93;;
9827;SDS011;4953;48.952;9.442;2022-10-31T11:04:27;15.13;;;7.10;;
9827;SDS011;4953;48.952;9.442;2022-10-31T11:06:56;12.43;;;6.73;;
9827;SDS011;4953;48.952;9.442;2022-10-31T11:09:24;9.77;;;5.63;;
9827;SDS011;4953;48.952;9.442;2022-10-31T11:11:52;11.50;;;6.70;;
9827;SDS011;4953;48.952;9.442;2022-10-31T11:14:21;19.53;;;7.87;;
9827;SDS011;4953;48.952;9.442;2022-10-31T11:16:49;15.60;;;7.00;;
9827;SDS011;4953;48.952;9.442;2022-10-31T11:19:20;10.57;;;5.97;;
9827;SDS011;4953;48.952;9.442;2022-10-31T11:21:50;9.70;;;6.27;;
9827;SDS011;4953;48.952;9.442;2022-10-31T11:24:17;14.80;;;6.73;;
9827;SDS011;4953;48.952;9.442;2022-10-31T11:26:46;14.47;;;6.30;;
9827;SDS011;4953;48.952;9.442;2022-10-31T11:29:16;10.40;;;5.63;;
9827;SDS011;4953;48.952;9.442;2022-10-31T11:31:46;14.17;;;7.27;;
9827;SDS011;4953;48.952;9.442;2022-10-31T11:34:18;13.80;;;7.20;;
9827;SDS011;4953;48.952;9.442;2022-10-31T11:36:53;16.73;;;6.53;;
9827;SDS011;4953;48.952;9.442;2022-10-31T11:39:23;12.10;;;6.30;;
9827;SDS011;4953;48.952;9.442;2022-10-31T11:41:51;15.63;;;6.67;;
9827;SDS011;4953;48.952;9.442;2022-10-31T11:44:22;13.73;;;6.67;;
9827;SDS011;4953;48.952;9.442;2022-10-31T11:46:53;15.23;;;6.73;;
9827;SDS011;4953;48.952;9.442;2022-10-31T11:49:25;10.43;;;6.73;;
9827;SDS011;4953;48.952;9.442;2022-10-31T11:51:57;16.50;;;6.17;;
9827;SDS011;4953;48.952;9.442;2022-10-31T11:54:27;12.47;;;7.67;;
9827;SDS011;4953;48.952;9.442;2022-10-31T11:56:56;14.10;;;7.83;;
9827;SDS011;4953;48.952;9.442;2022-10-31T11:59:26;11.60;;;7.13;;
9827;SDS011;4953;48.952;9.442;2022-10-31T12:01:55;8.43;;;5.37;;
9827;SDS011;4953;48.952;9.442;2022-10-31T12:04:26;10.80;;;6.03;;
9827;SDS011;4953;48.952;9.442;2022-10-31T12:07:00;11.63;;;6.17;;
9827;SDS011;4953;48.952;9.442;2022-10-31T12:09:28;15.73;;;6.47;;
9827;SDS011;4953;48.952;9.442;2022-10-31T12:12:00;12.80;;;6.67;;
9827;SDS011;4953;48.952;9.442;2022-10-31T12:14:47;10.47;;;6.30;;
9827;SDS011;4953;48.952;9.442;2022-10-31T12:17:21;11.37;;;6.70;;
9827;SDS011;4953;48.952;9.442;2022-10-31T12:19:57;13.47;;;6.73;;
9827;SDS011;4953;48.952;9.442;2022-10-31T12:22:31;13.10;;;6.20;;
9827;SDS011;4953;48.952;9.442;2022-10-31T12:25:16;13.63;;;6.73;;
9827;SDS011;4953;48.952;9.442;2022-10-31T12:27:59;18.43;;;7.10;;
9827;SDS011;4953;48.952;9.442;2022-10-31T12:30:39;11.73;;;5.70;;
9827;SDS011;4953;48.952;9.442;2022-10-31T12:33:18;12.13;;;6.50;;
9827;SDS011;4953;48.952;9.442;2022-10-31T12:35:59;12.60;;;6.20;;
9827;SDS011;4953;48.952;9.442;2022-10-31T12:38:40;14.10;;;6.33;;
9827;SDS011;4953;48.952;9.442;2022-10-31T12:41:22;10.83;;;5.77;;
9827;SDS011;4953;48.952;9.442;2022-10-31T12:43:57;15.37;;;6.00;;
9827;SDS011;4953;48.952;9.442;2022-10-31T12:46:37;10.40;;;5.67;;
9827;SDS011;4953;48.952;9.442;2022-10-31T12:49:22;11.77;;;6.13;;
9827;SDS011;4953;48.952;9.442;2022-10-31T12:52:04;14.90;;;6.77;;
9827;SDS011;4953;48.952;9.442;2022-10-31T12:54:50;11.33;;;6.53;;
9827;SDS011;4953;48.952;9.442;2022-10-31T12:57:29;17.20;;;6.93;;
9827;SDS011;4953;48.952;9.442;2022-10-31T13:00:00;11.83;;;5.90;;
9827;SDS011;4953;48.952;9.442;2022-10-31T13:02:32;10.03;;;5.90;;
9827;SDS011;4953;48.952;9.442;2022-10-31T13:05:05;14.60;;;6.90;;
9827;SDS011;4953;48.952;9.442;2022-10-31T13:07:41;13.77;;;6.33;;
9827;SDS011;4953;48.952;9.442;2022-10-31T13:10:15;8.60;;;5.40;;
9827;SDS011;4953;48.952;9.442;2022-10-31T13:12:47;13.73;;;6.67;;
9827;SDS011;4953;48.952;9.442;2022-10-31T13:15:18;12.63;;;7.07;;
9827;SDS011;4953;48.952;9.442;2022-10-31T13:17:49;14.23;;;7.20;;
9827;SDS011;4953;48.952;9.442;2022-10-31T13:20:24;11.57;;;6.90;;
9827;SDS011;4953;48.952;9.442;2022-10-31T13:22:55;14.00;;;7.30;;
9827;SDS011;4953;48.952;9.442;2022-10-31T13:25:28;15.10;;;6.30;;
9827;SDS011;4953;48.952;9.442;2022-10-31T13:28:00;11.73;;;6.87;;
9827;SDS011;4953;48.952;9.442;2022-10-31T13:30:31;14.53;;;8.10;;
9827;SDS011;4953;48.952;9.442;2022-10-31T13:33:03;18.13;;;7.63;;
9827;SDS011;4953;48.952;9.442;2022-10-31T13:35:37;11.23;;;7.20;;
9827;SDS011;4953;48.952;9.442;2022-10-31T13:38:14;13.03;;;7.23;;
9827;SDS011;4953;48.952;9.442;2022-10-31T13:40:50;13.33;;;7.13;;
9827;SDS011;4953;48.952;9.442;2022-10-31T13:43:26;12.97;;;7.50;;
9827;SDS011;4953;48.952;9.442;2022-10-31T13:45:58;12.73;;;6.90;;
9827;SDS011;4953;48.952;9.442;2022-10-31T13:51:09;12.80;;;6.80;;
9827;SDS011;4953;48.952;9.442;2022-10-31T13:53:38;17.73;;;7.80;;
9827;SDS011;4953;48.952;9.442;2022-10-31T13:56:22;17.33;;;7.10;;
9827;SDS011;4953;48.952;9.442;2022-10-31T13:58:56;13.10;;;7.43;;
9827;SDS011;4953;48.952;9.442;2022-10-31T14:01:29;12.87;;;7.60;;
9827;SDS011;4953;48.952;9.442;2022-10-31T14:04:02;16.10;;;8.30;;
9827;SDS011;4953;48.952;9.442;2022-10-31T14:06:34;12.73;;;7.70;;
9827;SDS011;4953;48.952;9.442;2022-10-31T14:09:03;18.33;;;7.83;;
9827;SDS011;4953;48.952;9.442;2022-10-31T14:11:30;13.00;;;7.10;;
9827;SDS011;4953;48.952;9.442;2022-10-31T14:13:58;14.83;;;7.33;;
9827;SDS011;4953;48.952;9.442;2022-10-31T14:16:27;12.10;;;7.13;;
9827;SDS011;4953;48.952;9.442;2022-10-31T14:18:57;17.53;;;8.37;;
9827;SDS011;4953;48.952;9.442;2022-10-31T14:21:28;10.10;;;6.27;;
9827;SDS011;4953;48.952;9.442;2022-10-31T14:23:57;11.33;;;7.10;;
9827;SDS011;4953;48.952;9.442;2022-10-31T14:26:31;13.43;;;6.50;;
9827;SDS011;4953;48.952;9.442;2022-10-31T14:29:00;13.73;;;6.60;;
9827;SDS011;4953;48.952;9.442;2022-10-31T14:31:32;10.23;;;6.13;;
9827;SDS011;4953;48.952;9.442;2022-10-31T14:34:06;12.00;;;6.70;;
9827;SDS011;4953;48.952;9.442;2022-10-31T14:36:50;19.23;;;7.00;;
9827;SDS011;4953;48.952;9.442;2022-10-31T14:39:31;14.27;;;6.70;;
9827;SDS011;4953;48.952;9.442;2022-10-31T14:42:07;23.87;;;7.60;;
9827;SDS011;4953;48.952;9.442;2022-10-31T14:47:56;17.27;;;7.00;;
9827;SDS011;4953;48.952;9.442;2022-10-31T14:50:40;15.37;;;7.30;;
9827;SDS011;4953;48.952;9.442;2022-10-31T14:53:12;14.00;;;7.67;;
9827;SDS011;4953;48.952;9.442;2022-10-31T14:55:43;11.87;;;6.73;;
9827;SDS011;4953;48.952;9.442;2022-10-31T14:58:15;16.37;;;7.33;;
9827;SDS011;4953;48.952;9.442;2022-10-31T15:00:46;14.47;;;9.40;;
9827;SDS011;4953;48.952;9.442;2022-10-31T15:03:14;22.20;;;9.13;;
9827;SDS011;4953;48.952;9.442;2022-10-31T15:05:44;17.80;;;8.10;;
9827;SDS011;4953;48.952;9.442;2022-10-31T15:08:25;14.17;;;6.73;;
9827;SDS011;4953;48.952;9.442;2022-10-31T15:10:55;11.20;;;6.30;;
9827;SDS011;4953;48.952;9.442;2022-10-31T15:13:22;22.23;;;7.57;;
9827;SDS011;4953;48.952;9.442;2022-10-31T15:15:49;13.17;;;6.93;;
9827;SDS011;4953;48.952;9.442;2022-10-31T15:18:20;18.40;;;7.80;;
9827;SDS011;4953;48.952;9.442;2022-10-31T15:20:50;17.17;;;7.17;;
9827;SDS011;4953;48.952;9.442;2022-10-31T15:23:20;15.07;;;7.00;;
9827;SDS011;4953;48.952;9.442;2022-10-31T15:25:49;11.50;;;6.70;;
9827;SDS011;4953;48.952;9.442;2022-10-31T15:28:20;14.60;;;6.63;;
9827;SDS011;4953;48.952;9.442;2022-10-31T15:30:49;17.40;;;7.10;;
9827;SDS011;4953;48.952;9.442;2022-10-31T15:33:21;15.23;;;9.00;;
9827;SDS011;4953;48.952;9.442;2022-10-31T15:35:57;10.57;;;5.80;;
9827;SDS011;4953;48.952;9.442;2022-10-31T15:38:25;12.03;;;6.33;;
9827;SDS011;4953;48.952;9.442;2022-10-31T15:40:54;12.73;;;6.50;;
9827;SDS011;4953;48.952;9.442;2022-10-31T15:43:24;18.03;;;7.73;;
9827;SDS011;4953;48.952;9.442;2022-10-31T15:45:51;12.57;;;6.63;;
9827;SDS011;4953;48.952;9.442;2022-10-31T15:48:18;17.93;;;7.87;;
9827;SDS011;4953;48.952;9.442;2022-10-31T15:50:50;14.73;;;7.70;;
9827;SDS011;4953;48.952;9.442;2022-10-31T15:53:20;15.40;;;7.57;;
9827;SDS011;4953;48.952;9.442;2022-10-31T15:55:50;16.10;;;6.90;;
9827;SDS011;4953;48.952;9.442;2022-10-31T15:58:20;20.97;;;7.97;;
9827;SDS011;4953;48.952;9.442;2022-10-31T16:00:56;10.70;;;7.20;;
9827;SDS011;4953;48.952;9.442;2022-10-31T16:03:24;10.80;;;6.83;;
9827;SDS011;4953;48.952;9.442;2022-10-31T16:05:53;14.30;;;6.83;;
9827;SDS011;4953;48.952;9.442;2022-10-31T16:08:33;11.40;;;7.20;;
9827;SDS011;4953;48.952;9.442;2022-10-31T16:11:02;18.87;;;7.73;;
9827;SDS011;4953;48.952;9.442;2022-10-31T16:13:52;11.77;;;7.30;;
9827;SDS011;4953;48.952;9.442;2022-10-31T16:16:20;16.80;;;6.60;;
9827;SDS011;4953;48.952;9.442;2022-10-31T16:18:48;13.13;;;7.07;;
9827;SDS011;4953;48.952;9.442;2022-10-31T16:21:22;11.00;;;6.30;;
9827;SDS011;4953;48.952;9.442;2022-10-31T16:23:53;11.67;;;7.37;;
9827;SDS011;4953;48.952;9.442;2022-10-31T16:26:24;14.27;;;8.10;;
9827;SDS011;4953;48.952;9.442;2022-10-31T16:28:52;10.90;;;7.30;;
9827;SDS011;4953;48.952;9.442;2022-10-31T16:31:25;15.57;;;8.03;;
9827;SDS011;4953;48.952;9.442;2022-10-31T16:36:43;12.90;;;7.50;;
9827;SDS011;4953;48.952;9.442;2022-10-31T16:39:11;11.73;;;7.80;;
9827;SDS011;4953;48.952;9.442;2022-10-31T16:41:39;18.13;;;7.13;;
9827;SDS011;4953;48.952;9.442;2022-10-31T16:44:14;15.37;;;8.37;;
9827;SDS011;4953;48.952;9.442;2022-10-31T16:46:43;17.43;;;8.47;;
9827;SDS011;4953;48.952;9.442;2022-10-31T16:49:10;15.83;;;7.13;;
9827;SDS011;4953;48.952;9.442;2022-10-31T16:51:37;19.53;;;8.10;;
9827;SDS011;4953;48.952;9.442;2022-10-31T16:54:04;14.40;;;6.90;;
9827;SDS011;4953;48.952;9.442;2022-10-31T16:56:33;21.30;;;10.00;;
9827;SDS011;4953;48.952;9.442;2022-10-31T16:59:02;22.33;;;10.20;;
9827;SDS011;4953;48.952;9.442;2022-10-31T17:01:31;23.17;;;11.00;;
9827;SDS011;4953;48.952;9.442;2022-10-31T17:04:00;13.50;;;9.20;;
9827;SDS011;4953;48.952;9.442;2022-10-31T17:06:26;22.80;;;10.80;;
9827;SDS011;4953;48.952;9.442;2022-10-31T17:08:53;12.60;;;9.40;;
9827;SDS011;4953;48.952;9.442;2022-10-31T17:11:21;18.20;;;11.47;;
9827;SDS011;4953;48.952;9.442;2022-10-31T17:13:51;18.27;;;11.60;;
9827;SDS011;4953;48.952;9.442;2022-10-31T17:16:19;20.50;;;12.20;;
9827;SDS011;4953;48.952;9.442;2022-10-31T17:18:46;25.73;;;14.07;;
9827;SDS011;4953;48.952;9.442;2022-10-31T17:21:15;25.67;;;14.07;;
9827;SDS011;4953;48.952;9.442;2022-10-31T17:23:44;24.73;;;11.57;;
9827;SDS011;4953;48.952;9.442;2022-10-31T17:26:11;23.00;;;13.17;;
9827;SDS011;4953;48.952;9.442;2022-10-31T17:28:38;19.37;;;14.60;;
9827;SDS011;4953;48.952;9.442;2022-10-31T17:31:07;29.00;;;19.40;;
9827;SDS011;4953;48.952;9.442;2022-10-31T17:33:43;18.43;;;12.50;;
9827;SDS011;4953;48.952;9.442;2022-10-31T17:36:10;20.33;;;11.77;;
9827;SDS011;4953;48.952;9.442;2022-10-31T17:38:37;18.87;;;12.13;;
9827;SDS011;4953;48.952;9.442;2022-10-31T17:41:04;19.30;;;11.00;;
9827;SDS011;4953;48.952;9.442;2022-10-31T17:43:31;20.13;;;11.40;;
9827;SDS011;4953;48.952;9.442;2022-10-31T17:46:01;16.27;;;10.77;;
9827;SDS011;4953;48.952;9.442;2022-10-31T17:48:30;16.67;;;10.73;;
9827;SDS011;4953;48.952;9.442;2022-10-31T17:51:01;19.73;;;11.23;;
9827;SDS011;4953;48.952;9.442;2022-10-31T17:53:29;13.53;;;9.93;;
9827;SDS011;4953;48.952;9.442;2022-10-31T17:56:00;16.50;;;9.43;;
9827;SDS011;4953;48.952;9.442;2022-10-31T17:58:28;17.07;;;10.30;;
9827;SDS011;4953;48.952;9.442;2022-10-31T18:00:55;17.00;;;9.40;;
9827;SDS011;4953;48.952;9.442;2022-10-31T18:03:23;19.83;;;9.63;;
9827;SDS011;4953;48.952;9.442;2022-10-31T18:05:51;17.33;;;10.60;;
9827;SDS011;4953;48.952;9.442;2022-10-31T18:08:19;16.37;;;9.30;;
9827;SDS011;4953;48.952;9.442;2022-10-31T18:10:50;22.47;;;10.33;;
9827;SDS011;4953;48.952;9.442;2022-10-31T18:13:16;17.07;;;10.50;;
9827;SDS011;4953;48.952;9.442;2022-10-31T18:15:43;14.80;;;10.47;;
9827;SDS011;4953;48.952;9.442;2022-10-31T18:18:10;21.50;;;13.70;;
9827;SDS011;4953;48.952;9.442;2022-10-31T18:20:37;21.70;;;14.20;;
9827;SDS011;4953;48.952;9.442;2022-10-31T18:23:06;22.23;;;13.10;;
9827;SDS011;4953;48.952;9.442;2022-10-31T18:25:32;18.67;;;10.33;;
9827;SDS011;4953;48.952;9.442;2022-10-31T18:27:59;21.83;;;10.20;;
9827;SDS011;4953;48.952;9.442;2022-10-31T18:30:27;15.13;;;9.43;;
9827;SDS011;4953;48.952;9.442;2022-10-31T18:32:53;23.50;;;10.20;;
9827;SDS011;4953;48.952;9.442;2022-10-31T18:35:21;15.10;;;11.33;;
9827;SDS011;4953;48.952;9.442;2022-10-31T18:37:47;16.33;;;11.33;;
9827;SDS011;4953;48.952;9.442;2022-10-31T18:40:16;15.80;;;9.57;;
9827;SDS011;4953;48.952;9.442;2022-10-31T18:42:42;16.13;;;10.07;;
9827;SDS011;4953;48.952;9.442;2022-10-31T18:45:09;14.27;;;9.20;;
9827;SDS011;4953;48.952;9.442;2022-10-31T18:47:36;16.70;;;11.80;;
9827;SDS011;4953;48.952;9.442;2022-10-31T18:50:03;17.20;;;10.90;;
9827;SDS011;4953;48.952;9.442;2022-10-31T18:52:30;18.50;;;12.87;;
9827;SDS011;4953;48.952;9.442;2022-10-31T18:54:57;17.03;;;12.10;;
9827;SDS011;4953;48.952;9.442;2022-10-31T18:57:25;22.63;;;12.97;;
9827;SDS011;4953;48.952;9.442;2022-10-31T18:59:52;19.50;;;11.87;;
9827;SDS011;4953;48.952;9.442;2022-10-31T19:02:19;28.73;;;12.43;;
9827;SDS011;4953;48.952;9.442;2022-10-31T19:04:48;22.63;;;13.13;;
9827;SDS011;4953;48.952;9.442;2022-10-31T19:07:15;41.80;;;24.40;;
9827;SDS011;4953;48.952;9.442;2022-10-31T19:09:42;45.37;;;25.03;;
9827;SDS011;4953;48.952;9.442;2022-10-31T19:12:09;23.50;;;14.30;;
9827;SDS011;4953;48.952;9.442;2022-10-31T19:14:37;20.07;;;11.23;;
9827;SDS011;4953;48.952;9.442;2022-10-31T19:17:04;18.63;;;11.10;;
9827;SDS011;4953;48.952;9.442;2022-10-31T19:19:30;18.70;;;11.50;;
9827;SDS011;4953;48.952;9.442;2022-10-31T19:21:57;18.80;;;11.17;;
9827;SDS011;4953;48.952;9.442;2022-10-31T19:24:25;18.80;;;14.13;;
9827;SDS011;4953;48.952;9.442;2022-10-31T19:26:52;25.63;;;14.93;;
9827;SDS011;4953;48.952;9.442;2022-10-31T19:29:19;29.97;;;16.33;;
9827;SDS011;4953;48.952;9.442;2022-10-31T19:31:47;21.37;;;14.40;;
9827;SDS011;4953;48.952;9.442;2022-10-31T19:34:14;22.63;;;15.30;;
9827;SDS011;4953;48.952;9.442;2022-10-31T19:36:41;22.53;;;13.70;;
9827;SDS011;4953;48.952;9.442;2022-10-31T19:39:08;19.53;;;12.20;;
9827;SDS011;4953;48.952;9.442;2022-10-31T19:41:35;23.50;;;12.43;;
9827;SDS011;4953;48.952;9.442;2022-10-31T19:44:02;26.63;;;18.10;;
9827;SDS011;4953;48.952;9.442;2022-10-31T19:46:29;40.57;;;28.33;;
9827;SDS011;4953;48.952;9.442;2022-10-31T19:48:57;27.97;;;20.07;;
9827;SDS011;4953;48.952;9.442;2022-10-31T19:51:25;29.33;;;18.37;;
9827;SDS011;4953;48.952;9.442;2022-10-31T19:53:52;20.90;;;14.73;;
9827;SDS011;4953;48.952;9.442;2022-10-31T19:56:20;23.20;;;14.73;;
9827;SDS011;4953;48.952;9.442;2022-10-31T19:58:48;21.90;;;14.60;;
9827;SDS011;4953;48.952;9.442;2022-10-31T20:01:16;27.33;;;14.83;;
9827;SDS011;4953;48.952;9.442;2022-10-31T20:03:45;24.23;;;14.73;;
9827;SDS011;4953;48.952;9.442;2022-10-31T20:06:14;22.60;;;13.83;;
9827;SDS011;4953;48.952;9.442;2022-10-31T20:08:46;22.97;;;16.13;;
9827;SDS011;4953;48.952;9.442;2022-10-31T20:11:13;21.43;;;14.93;;
9827;SDS011;4953;48.952;9.442;2022-10-31T20:13:40;24.50;;;16.87;;
9827;SDS011;4953;48.952;9.442;2022-10-31T20:16:07;20.30;;;14.43;;
9827;SDS011;4953;48.952;9.442;2022-10-31T20:18:35;23.67;;;15.20;;
9827;SDS011;4953;48.952;9.442;2022-10-31T20:21:03;24.63;;;15.23;;
9827;SDS011;4953;48.952;9.442;2022-10-31T20:23:32;22.87;;;15.53;;
9827;SDS011;4953;48.952;9.442;2022-10-31T20:26:00;22.70;;;15.13;;
9827;SDS011;4953;48.952;9.442;2022-10-31T20:28:28;22.43;;;14.80;;
9827;SDS011;4953;48.952;9.442;2022-10-31T20:30:56;24.30;;;15.40;;